sensor_id;sensor_type;location;lat;lon;timestamp;pressure;altitude;pressure_sealevel;temperature;humidity
39739;BME280;25422;48.286;8.484;2023-02-12T00:01:34;95845.69;;;-1.55;100.00
39739;BME280;25422;48.286;8.484;2023-02-12T00:03:59;95850.97;;;-1.58;100.00
39739;BME280;25422;48.286;8.484;2023-02-12T00:06:25;95852.63;;;-1.57;100.00
39739;BME280;25422;48.286;8.484;2023-02-12T00:08:51;95857.78;;;-1.57;100.00
39739;BME280;25422;48.286;8.484;2023-02-12T00:11:17;95855.97;;;-1.55;100.00
39739;BME280;25422;48.286;8.484;2023-02-12T00:13:43;95849.16;;;-1.56;100.00
39739;BME280;25422;48.286;8.484;2023-02-12T00:16:09;95846.19;;;-1.44;100.00
39739;BME280;25422;48.286;8.484;2023-02-12T00:18:35;95846.94;;;-1.42;100.00
39739;BME280;25422;48.286;8.484;2023-02-12T00:21:00;95853.97;;;-1.47;100.00
39739;BME280;25422;48.286;8.484;2023-02-12T00:23:26;95858.16;;;-1.44;100.00
39739;BME280;25422;48.286;8.484;2023-02-12T00:25:51;95852.75;;;-1.37;100.00
39739;BME280;25422;48.286;8.484;2023-02-12T00:28:16;95851.00;;;-1.36;100.00
39739;BME280;25422;48.286;8.484;2023-02-12T00:30:42;95845.47;;;-1.25;100.00
39739;BME280;25422;48.286;8.484;2023-02-12T00:33:07;95847.53;;;-1.11;100.00
39739;BME280;25422;48.286;8.484;2023-02-12T00:35:33;95843.97;;;-1.31;100.00
39739;BME280;25422;48.286;8.484;2023-02-12T00:37:58;95854.19;;;-1.29;100.00
39739;BME280;25422;48.286;8.484;2023-02-12T00:40:23;95851.69;;;-1.31;100.00
39739;BME280;25422;48.286;8.484;2023-02-12T00:42:49;95853.44;;;-1.31;100.00
39739;BME280;25422;48.286;8.484;2023-02-12T00:45:15;95850.34;;;-1.17;100.00
39739;BME280;25422;48.286;8.484;2023-02-12T00:47:40;95841.75;;;-1.16;100.00
39739;BME280;25422;48.286;8.484;2023-02-12T00:50:06;95839.28;;;-1.20;100.00
39739;BME280;25422;48.286;8.484;2023-02-12T00:52:32;95839.25;;;-1.18;100.00
39739;BME280;25422;48.286;8.484;2023-02-12T00:54:57;95841.75;;;-1.16;100.00
39739;BME280;25422;48.286;8.484;2023-02-12T00:57:22;95850.97;;;-1.11;100.00
39739;BME280;25422;48.286;8.484;2023-02-12T00:59:48;95840.63;;;-1.09;100.00
39739;BME280;25422;48.286;8.484;2023-02-12T01:02:13;95839.78;;;-1.10;100.00
39739;BME280;25422;48.286;8.484;2023-02-12T01:04:38;95840.81;;;-1.14;100.00
39739;BME280;25422;48.286;8.484;2023-02-12T01:07:03;95845.75;;;-1.09;100.00
39739;BME280;25422;48.286;8.484;2023-02-12T01:09:29;95844.00;;;-1.09;100.00
39739;BME280;25422;48.286;8.484;2023-02-12T01:11:54;95838.00;;;-1.08;100.00
39739;BME280;25422;48.286;8.484;2023-02-12T01:14:20;95833.78;;;-0.87;100.00
39739;BME280;25422;48.286;8.484;2023-02-12T01:16:46;95831.38;;;-0.91;100.00
39739;BME280;25422;48.286;8.484;2023-02-12T01:19:11;95845.00;;;-0.89;100.00
39739;BME280;25422;48.286;8.484;2023-02-12T01:21:37;95841.41;;;-0.85;100.00
39739;BME280;25422;48.286;8.484;2023-02-12T01:24:02;95836.41;;;-0.88;100.00
39739;BME280;25422;48.286;8.484;2023-02-12T01:26:28;95843.81;;;-0.80;100.00
39739;BME280;25422;48.286;8.484;2023-02-12T01:28:56;95833.03;;;-0.90;100.00
39739;BME280;25422;48.286;8.484;2023-02-12T01:31:22;95848.25;;;-0.84;100.00
39739;BME280;25422;48.286;8.484;2023-02-12T01:33:49;95844.75;;;-0.83;100.00
39739;BME280;25422;48.286;8.484;2023-02-12T01:36:15;95844.75;;;-0.83;100.00
39739;BME280;25422;48.286;8.484;2023-02-12T01:38:40;95853.19;;;-0.79;100.00
39739;BME280;25422;48.286;8.484;2023-02-12T01:41:08;95848.66;;;-0.95;100.00
39739;BME280;25422;48.286;8.484;2023-02-12T01:43:34;95847.72;;;-0.94;100.00
39739;BME280;25422;48.286;8.484;2023-02-12T01:46:00;95846.72;;;-0.90;100.00
39739;BME280;25422;48.286;8.484;2023-02-12T01:48:26;95851.25;;;-0.96;100.00
39739;BME280;25422;48.286;8.484;2023-02-12T01:50:53;95849.53;;;-0.96;100.00
39739;BME280;25422;48.286;8.484;2023-02-12T01:53:20;95852.84;;;-0.92;100.00
39739;BME280;25422;48.286;8.484;2023-02-12T01:55:48;95852.94;;;-0.95;100.00
39739;BME280;25422;48.286;8.484;2023-02-12T01:58:13;95851.31;;;-0.98;100.00
39739;BME280;25422;48.286;8.484;2023-02-12T02:00:40;95854.75;;;-0.97;100.00
39739;BME280;25422;48.286;8.484;2023-02-12T02:03:05;95844.41;;;-0.96;100.00
39739;BME280;25422;48.286;8.484;2023-02-12T02:05:42;95846.84;;;-0.93;100.00
39739;BME280;25422;48.286;8.484;2023-02-12T02:08:08;95851.34;;;-0.76;100.00
39739;BME280;25422;48.286;8.484;2023-02-12T02:10:33;95849.25;;;-0.88;100.00
39739;BME280;25422;48.286;8.484;2023-02-12T02:12:59;95841.66;;;-0.91;100.00
39739;BME280;25422;48.286;8.484;2023-02-12T02:15:44;95837.47;;;-0.94;100.00
39739;BME280;25422;48.286;8.484;2023-02-12T02:18:12;95849.34;;;-0.91;100.00
39739;BME280;25422;48.286;8.484;2023-02-12T02:23:21;95836.75;;;-0.97;100.00
39739;BME280;25422;48.286;8.484;2023-02-12T02:25:56;95823.91;;;-0.97;100.00
39739;BME280;25422;48.286;8.484;2023-02-12T02:31:11;95832.56;;;-0.78;100.00
39739;BME280;25422;48.286;8.484;2023-02-12T02:33:49;95829.19;;;-0.78;100.00
39739;BME280;25422;48.286;8.484;2023-02-12T02:36:22;95826.66;;;-0.80;100.00
39739;BME280;25422;48.286;8.484;2023-02-12T02:44:08;95823.97;;;-0.77;100.00
39739;BME280;25422;48.286;8.484;2023-02-12T02:46:36;95826.59;;;-0.78;100.00
39739;BME280;25422;48.286;8.484;2023-02-12T02:49:06;95827.31;;;-0.75;100.00
39739;BME280;25422;48.286;8.484;2023-02-12T02:51:33;95826.94;;;-0.65;100.00
39739;BME280;25422;48.286;8.484;2023-02-12T02:54:11;95819.53;;;-0.51;100.00
39739;BME280;25422;48.286;8.484;2023-02-12T02:56:39;95814.81;;;-0.62;100.00
39739;BME280;25422;48.286;8.484;2023-02-12T02:59:13;95819.88;;;-0.60;100.00
39739;BME280;25422;48.286;8.484;2023-02-12T03:01:43;95818.47;;;-0.68;100.00
39739;BME280;25422;48.286;8.484;2023-02-12T03:04:23;95820.25;;;-0.70;100.00
39739;BME280;25422;48.286;8.484;2023-02-12T03:07:13;95816.69;;;-0.45;100.00
39739;BME280;25422;48.286;8.484;2023-02-12T03:09:39;95809.69;;;-0.62;100.00
39739;BME280;25422;48.286;8.484;2023-02-12T03:12:08;95814.09;;;-0.65;100.00
39739;BME280;25422;48.286;8.484;2023-02-12T03:14:38;95815.97;;;-0.69;100.00
39739;BME280;25422;48.286;8.484;2023-02-12T03:17:08;95808.88;;;-0.64;100.00
39739;BME280;25422;48.286;8.484;2023-02-12T03:19:51;95808.19;;;-0.68;100.00
39739;BME280;25422;48.286;8.484;2023-02-12T03:22:18;95812.56;;;-0.49;100.00
39739;BME280;25422;48.286;8.484;2023-02-12T03:24:46;95811.75;;;-0.49;100.00
39739;BME280;25422;48.286;8.484;2023-02-12T03:29:39;95824.91;;;-0.35;100.00
39739;BME280;25422;48.286;8.484;2023-02-12T03:34:49;95812.91;;;-0.57;100.00
39739;BME280;25422;48.286;8.484;2023-02-12T03:39:56;95816.97;;;-0.51;100.00
39739;BME280;25422;48.286;8.484;2023-02-12T03:45:06;95813.72;;;-0.56;100.00
39739;BME280;25422;48.286;8.484;2023-02-12T03:47:43;95807.69;;;-0.55;100.00
39739;BME280;25422;48.286;8.484;2023-02-12T03:50:20;95810.56;;;-0.63;100.00
39739;BME280;25422;48.286;8.484;2023-02-12T03:52:51;95807.28;;;-0.66;100.00
39739;BME280;25422;48.286;8.484;2023-02-12T03:55:17;95816.44;;;-0.59;100.00
39739;BME280;25422;48.286;8.484;2023-02-12T03:57:47;95819.53;;;-0.51;100.00
39739;BME280;25422;48.286;8.484;2023-02-12T04:00:16;95824.91;;;-0.57;100.00
39739;BME280;25422;48.286;8.484;2023-02-12T04:02:45;95825.13;;;-0.41;100.00
39739;BME280;25422;48.286;8.484;2023-02-12T04:07:42;95829.09;;;-0.55;100.00
39739;BME280;25422;48.286;8.484;2023-02-12T04:10:07;95831.84;;;-0.59;100.00
39739;BME280;25422;48.286;8.484;2023-02-12T04:12:36;95836.13;;;-0.60;100.00
39739;BME280;25422;48.286;8.484;2023-02-12T04:15:20;95837.75;;;-0.57;100.00
39739;BME280;25422;48.286;8.484;2023-02-12T04:20:24;95835.69;;;-0.47;100.00
39739;BME280;25422;48.286;8.484;2023-02-12T04:23:02;95842.66;;;-0.51;100.00
39739;BME280;25422;48.286;8.484;2023-02-12T04:33:47;95839.31;;;-0.53;100.00
39739;BME280;25422;48.286;8.484;2023-02-12T04:36:24;95842.06;;;-0.58;100.00
39739;BME280;25422;48.286;8.484;2023-02-12T04:38:53;95847.41;;;-0.62;100.00
39739;BME280;25422;48.286;8.484;2023-02-12T04:41:21;95843.97;;;-0.63;100.00
39739;BME280;25422;48.286;8.484;2023-02-12T04:43:46;95849.56;;;-0.52;100.00
39739;BME280;25422;48.286;8.484;2023-02-12T04:46:12;95849.72;;;-0.56;100.00
39739;BME280;25422;48.286;8.484;2023-02-12T04:48:40;95843.84;;;-0.38;100.00
39739;BME280;25422;48.286;8.484;2023-02-12T04:51:10;95840.81;;;-0.47;100.00
39739;BME280;25422;48.286;8.484;2023-02-12T04:53:35;95834.81;;;-0.48;100.00
39739;BME280;25422;48.286;8.484;2023-02-12T04:56:02;95837.31;;;-0.46;100.00
39739;BME280;25422;48.286;8.484;2023-02-12T04:58:27;95849.44;;;-0.48;100.00
39739;BME280;25422;48.286;8.484;2023-02-12T05:00:52;95838.34;;;-0.51;100.00
39739;BME280;25422;48.286;8.484;2023-02-12T05:03:18;95833.97;;;-0.26;100.00
39739;BME280;25422;48.286;8.484;2023-02-12T05:05:43;95832.91;;;-0.43;100.00
39739;BME280;25422;48.286;8.484;2023-02-12T05:08:08;95843.78;;;-0.36;100.00
39739;BME280;25422;48.286;8.484;2023-02-12T05:10:34;95833.81;;;-0.44;100.00
39739;BME280;25422;48.286;8.484;2023-02-12T05:12:59;95834.00;;;-0.48;100.00
39739;BME280;25422;48.286;8.484;2023-02-12T05:15:24;95832.84;;;-0.41;100.00
39739;BME280;25422;48.286;8.484;2023-02-12T05:17:49;95839.84;;;-0.45;100.00
39739;BME280;25422;48.286;8.484;2023-02-12T05:20:15;95838.72;;;-0.38;100.00
39739;BME280;25422;48.286;8.484;2023-02-12T05:22:40;95837.69;;;-0.33;100.00
39739;BME280;25422;48.286;8.484;2023-02-12T05:25:05;95837.06;;;-0.18;100.00
39739;BME280;25422;48.286;8.484;2023-02-12T05:27:31;95833.06;;;-0.25;100.00
39739;BME280;25422;48.286;8.484;2023-02-12T05:29:56;95838.56;;;-0.35;100.00
39739;BME280;25422;48.286;8.484;2023-02-12T05:32:22;95827.78;;;-0.43;100.00
39739;BME280;25422;48.286;8.484;2023-02-12T05:34:47;95834.59;;;-0.42;100.00
39739;BME280;25422;48.286;8.484;2023-02-12T05:37:13;95841.09;;;-0.33;100.00
39739;BME280;25422;48.286;8.484;2023-02-12T05:39:38;95841.59;;;-0.25;100.00
39739;BME280;25422;48.286;8.484;2023-02-12T05:42:04;95835.63;;;-0.25;100.00
39739;BME280;25422;48.286;8.484;2023-02-12T05:44:29;95841.59;;;-0.25;100.00
39739;BME280;25422;48.286;8.484;2023-02-12T05:46:54;95835.81;;;-0.30;100.00
39739;BME280;25422;48.286;8.484;2023-02-12T05:49:19;95834.31;;;-0.36;100.00
39739;BME280;25422;48.286;8.484;2023-02-12T05:51:45;95831.88;;;-0.39;100.00
39739;BME280;25422;48.286;8.484;2023-02-12T05:54:10;95829.31;;;-0.39;100.00
39739;BME280;25422;48.286;8.484;2023-02-12T05:56:36;95829.69;;;-0.27;100.00
39739;BME280;25422;48.286;8.484;2023-02-12T06:01:30;95825.78;;;-0.36;100.00
39739;BME280;25422;48.286;8.484;2023-02-12T06:03:57;95828.16;;;-0.31;100.00
39739;BME280;25422;48.286;8.484;2023-02-12T06:06:23;95837.13;;;-0.20;100.00
39739;BME280;25422;48.286;8.484;2023-02-12T06:08:49;95829.69;;;-0.27;100.00
39739;BME280;25422;48.286;8.484;2023-02-12T06:11:15;95825.47;;;-0.28;100.00
39739;BME280;25422;48.286;8.484;2023-02-12T06:13:41;95828.69;;;-0.23;100.00
39739;BME280;25422;48.286;8.484;2023-02-12T06:16:14;95835.50;;;-0.22;100.00
39739;BME280;25422;48.286;8.484;2023-02-12T06:18:40;95838.88;;;-0.20;100.00
39739;BME280;25422;48.286;8.484;2023-02-12T06:21:05;95834.41;;;-0.17;100.00
39739;BME280;25422;48.286;8.484;2023-02-12T06:23:30;95837.63;;;-0.11;100.00
39739;BME280;25422;48.286;8.484;2023-02-12T06:25:56;95834.22;;;-0.12;100.00
39739;BME280;25422;48.286;8.484;2023-02-12T06:28:21;95835.78;;;-0.08;100.00
39739;BME280;25422;48.286;8.484;2023-02-12T06:30:47;95835.50;;;-0.02;100.00
39739;BME280;25422;48.286;8.484;2023-02-12T06:33:12;95844.91;;;-0.01;100.00
39739;BME280;25422;48.286;8.484;2023-02-12T06:35:37;95840.34;;;0.06;100.00
39739;BME280;25422;48.286;8.484;2023-02-12T06:38:03;95839.97;;;0.15;100.00
39739;BME280;25422;48.286;8.484;2023-02-12T06:40:29;95839.69;;;0.22;100.00
39739;BME280;25422;48.286;8.484;2023-02-12T06:42:54;95834.06;;;0.32;100.00
39739;BME280;25422;48.286;8.484;2023-02-12T06:45:19;95834.03;;;0.34;100.00
39739;BME280;25422;48.286;8.484;2023-02-12T06:47:44;95847.94;;;0.30;100.00
39739;BME280;25422;48.286;8.484;2023-02-12T06:50:10;95843.63;;;0.30;100.00
39739;BME280;25422;48.286;8.484;2023-02-12T06:52:35;95842.66;;;0.33;100.00
39739;BME280;25422;48.286;8.484;2023-02-12T06:55:51;95845.16;;;0.35;100.00
39739;BME280;25422;48.286;8.484;2023-02-12T06:58:17;95846.28;;;0.48;100.00
39739;BME280;25422;48.286;8.484;2023-02-12T07:00:42;95852.63;;;0.41;100.00
39739;BME280;25422;48.286;8.484;2023-02-12T07:03:07;95846.69;;;0.39;100.00
39739;BME280;25422;48.286;8.484;2023-02-12T07:06:43;95847.97;;;0.49;100.00
39739;BME280;25422;48.286;8.484;2023-02-12T07:09:08;95856.66;;;0.46;100.00
39739;BME280;25422;48.286;8.484;2023-02-12T07:11:34;95857.28;;;0.52;100.00
39739;BME280;25422;48.286;8.484;2023-02-12T07:14:00;95859.31;;;0.45;100.00
39739;BME280;25422;48.286;8.484;2023-02-12T07:16:26;95859.84;;;0.52;100.00
39739;BME280;25422;48.286;8.484;2023-02-12T07:18:51;95855.50;;;0.54;100.00
39739;BME280;25422;48.286;8.484;2023-02-12T07:21:17;95864.53;;;0.62;100.00
39739;BME280;25422;48.286;8.484;2023-02-12T07:23:50;95860.44;;;0.77;100.00
39739;BME280;25422;48.286;8.484;2023-02-12T07:26:17;95863.81;;;0.79;100.00
39739;BME280;25422;48.286;8.484;2023-02-12T07:28:43;95869.66;;;0.83;100.00
39739;BME280;25422;48.286;8.484;2023-02-12T07:31:14;95865.41;;;0.82;100.00
39739;BME280;25422;48.286;8.484;2023-02-12T07:33:41;95855.84;;;0.84;100.00
39739;BME280;25422;48.286;8.484;2023-02-12T07:36:10;95863.19;;;0.93;100.00
39739;BME280;25422;48.286;8.484;2023-02-12T07:38:36;95862.34;;;0.93;100.00
39739;BME280;25422;48.286;8.484;2023-02-12T07:41:36;95857.41;;;1.07;100.00
39739;BME280;25422;48.286;8.484;2023-02-12T07:44:04;95856.41;;;1.10;100.00
39739;BME280;25422;48.286;8.484;2023-02-12T07:46:37;95853.16;;;1.06;100.00
39739;BME280;25422;48.286;8.484;2023-02-12T07:49:05;95862.44;;;1.10;100.00
39739;BME280;25422;48.286;8.484;2023-02-12T07:51:33;95850.50;;;1.27;100.00
39739;BME280;25422;48.286;8.484;2023-02-12T07:53:59;95861.50;;;1.30;100.00
39739;BME280;25422;48.286;8.484;2023-02-12T07:56:27;95853.34;;;1.21;100.00
39739;BME280;25422;48.286;8.484;2023-02-12T07:58:55;95858.22;;;1.27;100.00
39739;BME280;25422;48.286;8.484;2023-02-12T08:03:47;95869.19;;;1.32;100.00
39739;BME280;25422;48.286;8.484;2023-02-12T08:06:21;95869.72;;;1.39;100.00
39739;BME280;25422;48.286;8.484;2023-02-12T08:08:52;95862.00;;;1.39;100.00
39739;BME280;25422;48.286;8.484;2023-02-12T08:11:18;95862.72;;;1.41;100.00
39739;BME280;25422;48.286;8.484;2023-02-12T08:13:44;95864.91;;;1.31;100.00
39739;BME280;25422;48.286;8.484;2023-02-12T08:16:12;95867.22;;;1.37;100.00
39739;BME280;25422;48.286;8.484;2023-02-12T08:18:39;95863.88;;;1.35;100.00
39739;BME280;25422;48.286;8.484;2023-02-12T08:21:06;95869.09;;;1.33;100.00
39739;BME280;25422;48.286;8.484;2023-02-12T08:23:32;95860.59;;;1.31;100.00
39739;BME280;25422;48.286;8.484;2023-02-12T08:26:12;95863.72;;;1.38;100.00
39739;BME280;25422;48.286;8.484;2023-02-12T08:28:43;95865.69;;;1.33;100.00
39739;BME280;25422;48.286;8.484;2023-02-12T08:31:29;95867.25;;;1.35;100.00
39739;BME280;25422;48.286;8.484;2023-02-12T08:33:55;95860.16;;;1.41;100.00
39739;BME280;25422;48.286;8.484;2023-02-12T08:36:26;95858.41;;;1.60;100.00
39739;BME280;25422;48.286;8.484;2023-02-12T08:38:51;95856.41;;;1.65;100.00
39739;BME280;25422;48.286;8.484;2023-02-12T08:41:22;95861.72;;;1.62;100.00
39739;BME280;25422;48.286;8.484;2023-02-12T08:43:49;95852.63;;;1.73;100.00
39739;BME280;25422;48.286;8.484;2023-02-12T08:46:19;95844.47;;;1.82;100.00
39739;BME280;25422;48.286;8.484;2023-02-12T08:48:46;95853.03;;;1.82;100.00
39739;BME280;25422;48.286;8.484;2023-02-12T08:51:14;95850.81;;;1.92;100.00
39739;BME280;25422;48.286;8.484;2023-02-12T08:53:42;95850.97;;;2.07;100.00
39739;BME280;25422;48.286;8.484;2023-02-12T08:56:10;95850.44;;;2.17;100.00
39739;BME280;25422;48.286;8.484;2023-02-12T08:58:36;95847.78;;;2.19;100.00
39739;BME280;25422;48.286;8.484;2023-02-12T09:01:02;95851.28;;;2.18;100.00
39739;BME280;25422;48.286;8.484;2023-02-12T09:03:28;95846.72;;;2.23;100.00
39739;BME280;25422;48.286;8.484;2023-02-12T09:05:54;95852.88;;;2.21;100.00
39739;BME280;25422;48.286;8.484;2023-02-12T09:08:20;95852.75;;;2.57;100.00
39739;BME280;25422;48.286;8.484;2023-02-12T09:10:45;95849.28;;;2.41;100.00
39739;BME280;25422;48.286;8.484;2023-02-12T09:13:12;95851.31;;;2.51;100.00
39739;BME280;25422;48.286;8.484;2023-02-12T09:15:41;95851.88;;;2.41;100.00
39739;BME280;25422;48.286;8.484;2023-02-12T09:18:08;95851.69;;;2.44;100.00
39739;BME280;25422;48.286;8.484;2023-02-12T09:20:40;95848.28;;;2.43;100.00
39739;BME280;25422;48.286;8.484;2023-02-12T09:23:08;95851.63;;;2.45;100.00
39739;BME280;25422;48.286;8.484;2023-02-12T09:25:37;95856.66;;;2.64;100.00
39739;BME280;25422;48.286;8.484;2023-02-12T09:28:03;95843.69;;;2.66;100.00
39739;BME280;25422;48.286;8.484;2023-02-12T09:30:29;95844.91;;;2.59;100.00
39739;BME280;25422;48.286;8.484;2023-02-12T09:32:55;95845.19;;;2.70;100.00
39739;BME280;25422;48.286;8.484;2023-02-12T09:35:21;95846.75;;;2.57;100.00
39739;BME280;25422;48.286;8.484;2023-02-12T09:37:47;95848.38;;;2.91;100.00
39739;BME280;25422;48.286;8.484;2023-02-12T09:40:18;95847.78;;;2.86;100.00
39739;BME280;25422;48.286;8.484;2023-02-12T09:43:08;95848.63;;;2.86;100.00
39739;BME280;25422;48.286;8.484;2023-02-12T09:45:45;95849.13;;;2.77;100.00
39739;BME280;25422;48.286;8.484;2023-02-12T09:50:58;95856.91;;;2.93;100.00
39739;BME280;25422;48.286;8.484;2023-02-12T09:53:27;95850.38;;;2.70;100.00
39739;BME280;25422;48.286;8.484;2023-02-12T09:55:53;95852.78;;;2.73;100.00
39739;BME280;25422;48.286;8.484;2023-02-12T09:58:32;95852.00;;;2.71;100.00
39739;BME280;25422;48.286;8.484;2023-02-12T10:01:00;95852.72;;;2.91;100.00
39739;BME280;25422;48.286;8.484;2023-02-12T10:03:29;95854.31;;;2.93;100.00
39739;BME280;25422;48.286;8.484;2023-02-12T10:06:02;95846.56;;;3.09;100.00
39739;BME280;25422;48.286;8.484;2023-02-12T10:08:40;95850.75;;;2.96;100.00
39739;BME280;25422;48.286;8.484;2023-02-12T10:11:14;95857.00;;;2.92;100.00
39739;BME280;25422;48.286;8.484;2023-02-12T10:13:58;95852.81;;;3.05;100.00
39739;BME280;25422;48.286;8.484;2023-02-12T10:16:50;95857.41;;;3.16;100.00
39739;BME280;25422;48.286;8.484;2023-02-12T10:19:53;95855.00;;;3.13;100.00
39739;BME280;25422;48.286;8.484;2023-02-12T10:25:55;95854.31;;;3.09;100.00
39739;BME280;25422;48.286;8.484;2023-02-12T10:28:29;95855.59;;;3.18;100.00
39739;BME280;25422;48.286;8.484;2023-02-12T10:30:59;95846.31;;;3.14;100.00
39739;BME280;25422;48.286;8.484;2023-02-12T10:33:30;95846.25;;;3.47;100.00
39739;BME280;25422;48.286;8.484;2023-02-12T10:39:20;95835.34;;;3.72;100.00
39739;BME280;25422;48.286;8.484;2023-02-12T10:44:25;95842.63;;;3.96;100.00
39739;BME280;25422;48.286;8.484;2023-02-12T10:46:50;95838.00;;;4.01;100.00
39739;BME280;25422;48.286;8.484;2023-02-12T10:49:17;95840.22;;;4.24;100.00
39739;BME280;25422;48.286;8.484;2023-02-12T10:52:11;95836.28;;;4.16;100.00
39739;BME280;25422;48.286;8.484;2023-02-12T10:54:47;95833.13;;;4.56;100.00
39739;BME280;25422;48.286;8.484;2023-02-12T10:57:23;95836.41;;;4.29;100.00
39739;BME280;25422;48.286;8.484;2023-02-12T10:59:51;95834.72;;;4.14;100.00
39739;BME280;25422;48.286;8.484;2023-02-12T11:02:30;95831.09;;;4.02;100.00
39739;BME280;25422;48.286;8.484;2023-02-12T11:04:57;95836.13;;;4.19;100.00
39739;BME280;25422;48.286;8.484;2023-02-12T11:07:25;95831.09;;;4.16;100.00
39739;BME280;25422;48.286;8.484;2023-02-12T11:09:53;95832.88;;;4.16;100.00
39739;BME280;25422;48.286;8.484;2023-02-12T11:15:18;95824.38;;;4.14;100.00
39739;BME280;25422;48.286;8.484;2023-02-12T11:17:45;95822.22;;;4.20;100.00
39739;BME280;25422;48.286;8.484;2023-02-12T11:20:24;95822.78;;;3.81;100.00
39739;BME280;25422;48.286;8.484;2023-02-12T11:26:06;95814.22;;;3.95;100.00
39739;BME280;25422;48.286;8.484;2023-02-12T11:28:34;95824.94;;;3.88;100.00
39739;BME280;25422;48.286;8.484;2023-02-12T11:31:02;95808.31;;;3.93;100.00
39739;BME280;25422;48.286;8.484;2023-02-12T11:33:33;95810.75;;;3.80;100.00
39739;BME280;25422;48.286;8.484;2023-02-12T11:38:30;95813.38;;;4.39;100.00
39739;BME280;25422;48.286;8.484;2023-02-12T11:40:59;95809.31;;;4.49;100.00
39739;BME280;25422;48.286;8.484;2023-02-12T11:43:26;95806.25;;;4.28;100.00
39739;BME280;25422;48.286;8.484;2023-02-12T11:45:54;95818.66;;;4.37;100.00
39739;BME280;25422;48.286;8.484;2023-02-12T11:50:51;95809.41;;;4.33;100.00
39739;BME280;25422;48.286;8.484;2023-02-12T11:53:32;95806.34;;;4.27;100.00
39739;BME280;25422;48.286;8.484;2023-02-12T11:56:05;95804.81;;;4.08;100.00
39739;BME280;25422;48.286;8.484;2023-02-12T11:58:31;95813.69;;;4.04;100.00
39739;BME280;25422;48.286;8.484;2023-02-12T12:14:41;95799.81;;;4.05;100.00
39739;BME280;25422;48.286;8.484;2023-02-12T12:20:42;95802.31;;;4.07;100.00
39739;BME280;25422;48.286;8.484;2023-02-12T12:23:17;95795.69;;;3.86;100.00
39739;BME280;25422;48.286;8.484;2023-02-12T12:25:49;95798.56;;;3.82;100.00
39739;BME280;25422;48.286;8.484;2023-02-12T12:28:35;95804.66;;;3.81;100.00
39739;BME280;25422;48.286;8.484;2023-02-12T12:50:20;95800.41;;;3.80;100.00
39739;BME280;25422;48.286;8.484;2023-02-12T12:53:06;95794.28;;;3.66;100.00
39739;BME280;25422;48.286;8.484;2023-02-12T12:56:04;95785.00;;;3.93;100.00
39739;BME280;25422;48.286;8.484;2023-02-12T13:01:31;95793.28;;;3.83;100.00
39739;BME280;25422;48.286;8.484;2023-02-12T13:10:12;95786.91;;;3.75;100.00
39739;BME280;25422;48.286;8.484;2023-02-12T13:27:11;95774.94;;;3.88;100.00
39739;BME280;25422;48.286;8.484;2023-02-12T13:29:53;95785.63;;;3.82;100.00
39739;BME280;25422;48.286;8.484;2023-02-12T13:32:41;95774.16;;;3.86;100.00
39739;BME280;25422;48.286;8.484;2023-02-12T13:35:15;95772.97;;;3.92;100.00
39739;BME280;25422;48.286;8.484;2023-02-12T13:37:44;95773.00;;;4.06;100.00
39739;BME280;25422;48.286;8.484;2023-02-12T13:40:16;95777.28;;;4.07;100.00
39739;BME280;25422;48.286;8.484;2023-02-12T13:42:47;95778.06;;;3.93;100.00
39739;BME280;25422;48.286;8.484;2023-02-12T13:45:20;95782.31;;;3.94;100.00
39739;BME280;25422;48.286;8.484;2023-02-12T13:48:02;95776.03;;;3.84;100.00
39739;BME280;25422;48.286;8.484;2023-02-12T13:56:06;95763.56;;;4.05;100.00
39739;BME280;25422;48.286;8.484;2023-02-12T13:58:37;95763.50;;;4.21;100.00
39739;BME280;25422;48.286;8.484;2023-02-12T14:03:33;95765.16;;;4.08;100.00
39739;BME280;25422;48.286;8.484;2023-02-12T14:06:09;95760.78;;;4.08;100.00
39739;BME280;25422;48.286;8.484;2023-02-12T14:09:09;95765.06;;;4.24;100.00
39739;BME280;25422;48.286;8.484;2023-02-12T14:11:47;95758.97;;;4.25;100.00
39739;BME280;25422;48.286;8.484;2023-02-12T14:14:22;95755.91;;;4.18;100.00
39739;BME280;25422;48.286;8.484;2023-02-12T14:16:49;95754.41;;;4.28;100.00
39739;BME280;25422;48.286;8.484;2023-02-12T14:19:53;95756.09;;;4.44;100.00
39739;BME280;25422;48.286;8.484;2023-02-12T14:24:55;95746.19;;;4.36;100.00
39739;BME280;25422;48.286;8.484;2023-02-12T14:27:25;95733.13;;;4.37;100.00
39739;BME280;25422;48.286;8.484;2023-02-12T14:35:36;95740.16;;;4.07;100.00
39739;BME280;25422;48.286;8.484;2023-02-12T14:41:32;95727.88;;;4.10;100.00
39739;BME280;25422;48.286;8.484;2023-02-12T14:46:55;95737.31;;;4.11;100.00
39739;BME280;25422;48.286;8.484;2023-02-12T14:52:05;95728.88;;;4.51;100.00
39739;BME280;25422;48.286;8.484;2023-02-12T14:55:01;95731.72;;;4.61;100.00
39739;BME280;25422;48.286;8.484;2023-02-12T14:57:39;95728.78;;;4.52;100.00
39739;BME280;25422;48.286;8.484;2023-02-12T15:02:54;95723.31;;;4.57;100.00
39739;BME280;25422;48.286;8.484;2023-02-12T15:05:33;95720.66;;;4.44;100.00
39739;BME280;25422;48.286;8.484;2023-02-12T15:08:12;95717.03;;;4.47;100.00
39739;BME280;25422;48.286;8.484;2023-02-12T15:11:16;95719.28;;;4.38;100.00
39739;BME280;25422;48.286;8.484;2023-02-12T15:14:00;95717.31;;;4.42;100.00
39739;BME280;25422;48.286;8.484;2023-02-12T15:16:48;95722.22;;;4.47;100.00
39739;BME280;25422;48.286;8.484;2023-02-12T15:22:20;95720.28;;;4.36;100.00
39739;BME280;25422;48.286;8.484;2023-02-12T15:24:47;95715.56;;;4.28;100.00
39739;BME280;25422;48.286;8.484;2023-02-12T15:27:13;95714.84;;;4.26;100.00
39739;BME280;25422;48.286;8.484;2023-02-12T15:29:43;95710.66;;;4.24;100.00
39739;BME280;25422;48.286;8.484;2023-02-12T15:32:16;95709.81;;;4.23;100.00
39739;BME280;25422;48.286;8.484;2023-02-12T15:34:47;95705.75;;;4.19;100.00
39739;BME280;25422;48.286;8.484;2023-02-12T15:37:21;95708.25;;;4.20;100.00
39739;BME280;25422;48.286;8.484;2023-02-12T15:39:48;95714.63;;;4.15;100.00
39739;BME280;25422;48.286;8.484;2023-02-12T15:42:36;95710.75;;;4.08;100.00
39739;BME280;25422;48.286;8.484;2023-02-12T15:47:34;95695.28;;;3.92;100.00